sensor_id;sensor_type;location;lat;lon;timestamp;P1;durP1;ratioP1;P2;durP2;ratioP2
65691;SDS011;52411;52.716;6.696;2023-07-28T00:00:06;25.70;;;13.57;;
65691;SDS011;52411;52.716;6.696;2023-07-28T00:02:33;25.50;;;14.23;;
65691;SDS011;52411;52.716;6.696;2023-07-28T00:04:58;25.40;;;13.70;;
65691;SDS011;52411;52.716;6.696;2023-07-28T00:07:24;29.67;;;14.00;;
65691;SDS011;52411;52.716;6.696;2023-07-28T00:09:50;27.77;;;14.13;;
65691;SDS011;52411;52.716;6.696;2023-07-28T00:12:15;24.33;;;12.63;;
65691;SDS011;52411;52.716;6.696;2023-07-28T00:14:41;25.70;;;13.15;;
65691;SDS011;52411;52.716;6.696;2023-07-28T00:17:06;31.70;;;14.18;;
65691;SDS011;52411;52.716;6.696;2023-07-28T00:19:32;32.75;;;13.65;;
65691;SDS011;52411;52.716;6.696;2023-07-28T00:21:58;27.83;;;14.05;;
65691;SDS011;52411;52.716;6.696;2023-07-28T00:24:23;30.08;;;13.73;;
65691;SDS011;52411;52.716;6.696;2023-07-28T00:26:49;29.60;;;14.05;;
65691;SDS011;52411;52.716;6.696;2023-07-28T00:29:14;29.60;;;13.88;;
65691;SDS011;52411;52.716;6.696;2023-07-28T00:31:40;34.40;;;13.40;;
65691;SDS011;52411;52.716;6.696;2023-07-28T00:34:06;32.83;;;13.75;;
65691;SDS011;52411;52.716;6.696;2023-07-28T00:36:31;27.77;;;13.52;;
65691;SDS011;52411;52.716;6.696;2023-07-28T00:38:57;25.58;;;13.27;;
65691;SDS011;52411;52.716;6.696;2023-07-28T00:41:23;28.08;;;13.25;;
65691;SDS011;52411;52.716;6.696;2023-07-28T00:43:49;31.88;;;13.88;;
65691;SDS011;52411;52.716;6.696;2023-07-28T00:46:14;26.58;;;12.98;;
65691;SDS011;52411;52.716;6.696;2023-07-28T00:48:41;24.95;;;13.93;;
65691;SDS011;52411;52.716;6.696;2023-07-28T00:51:08;30.95;;;14.45;;
65691;SDS011;52411;52.716;6.696;2023-07-28T00:53:34;28.80;;;14.00;;
65691;SDS011;52411;52.716;6.696;2023-07-28T00:56:00;25.48;;;13.60;;
65691;SDS011;52411;52.716;6.696;2023-07-28T00:58:27;27.83;;;14.00;;
65691;SDS011;52411;52.716;6.696;2023-07-28T01:00:53;28.55;;;13.65;;
65691;SDS011;52411;52.716;6.696;2023-07-28T01:03:19;27.23;;;14.23;;
65691;SDS011;52411;52.716;6.696;2023-07-28T01:08:31;35.00;;;14.18;;
65691;SDS011;52411;52.716;6.696;2023-07-28T01:11:00;32.58;;;14.32;;
65691;SDS011;52411;52.716;6.696;2023-07-28T01:13:26;34.40;;;15.32;;
65691;SDS011;52411;52.716;6.696;2023-07-28T01:15:52;32.58;;;14.43;;
65691;SDS011;52411;52.716;6.696;2023-07-28T01:18:18;32.25;;;15.10;;
65691;SDS011;52411;52.716;6.696;2023-07-28T01:20:44;27.65;;;14.77;;
65691;SDS011;52411;52.716;6.696;2023-07-28T01:23:19;31.60;;;15.55;;
65691;SDS011;52411;52.716;6.696;2023-07-28T01:28:20;31.13;;;14.88;;
65691;SDS011;52411;52.716;6.696;2023-07-28T01:30:47;35.22;;;14.85;;
65691;SDS011;52411;52.716;6.696;2023-07-28T01:33:13;37.00;;;14.90;;
65691;SDS011;52411;52.716;6.696;2023-07-28T01:35:38;29.45;;;14.60;;
65691;SDS011;52411;52.716;6.696;2023-07-28T01:38:04;29.02;;;14.45;;
65691;SDS011;52411;52.716;6.696;2023-07-28T01:40:30;35.00;;;15.07;;
65691;SDS011;52411;52.716;6.696;2023-07-28T01:42:55;29.55;;;14.35;;
65691;SDS011;52411;52.716;6.696;2023-07-28T01:45:21;36.13;;;14.80;;
65691;SDS011;52411;52.716;6.696;2023-07-28T01:47:47;29.20;;;13.82;;
65691;SDS011;52411;52.716;6.696;2023-07-28T01:50:12;36.47;;;15.77;;
65691;SDS011;52411;52.716;6.696;2023-07-28T01:52:38;29.67;;;14.02;;
65691;SDS011;52411;52.716;6.696;2023-07-28T01:55:04;32.15;;;14.32;;
65691;SDS011;52411;52.716;6.696;2023-07-28T01:57:34;30.27;;;15.00;;
65691;SDS011;52411;52.716;6.696;2023-07-28T02:00:04;34.95;;;13.95;;
65691;SDS011;52411;52.716;6.696;2023-07-28T02:02:31;30.33;;;13.63;;
65691;SDS011;52411;52.716;6.696;2023-07-28T02:04:56;29.10;;;14.18;;
65691;SDS011;52411;52.716;6.696;2023-07-28T02:07:22;30.67;;;13.18;;
65691;SDS011;52411;52.716;6.696;2023-07-28T02:09:47;25.80;;;13.00;;
65691;SDS011;52411;52.716;6.696;2023-07-28T02:12:13;26.40;;;13.32;;
65691;SDS011;52411;52.716;6.696;2023-07-28T02:14:38;29.77;;;13.85;;
65691;SDS011;52411;52.716;6.696;2023-07-28T02:17:04;31.80;;;13.93;;
65691;SDS011;52411;52.716;6.696;2023-07-28T02:19:30;26.45;;;13.38;;
65691;SDS011;52411;52.716;6.696;2023-07-28T02:21:56;29.80;;;13.38;;
65691;SDS011;52411;52.716;6.696;2023-07-28T02:24:21;29.45;;;13.50;;
65691;SDS011;52411;52.716;6.696;2023-07-28T02:26:47;29.63;;;13.88;;
65691;SDS011;52411;52.716;6.696;2023-07-28T02:29:13;28.75;;;13.18;;
65691;SDS011;52411;52.716;6.696;2023-07-28T02:31:38;31.52;;;13.95;;
65691;SDS011;52411;52.716;6.696;2023-07-28T02:34:04;28.00;;;13.43;;
65691;SDS011;52411;52.716;6.696;2023-07-28T02:36:29;27.92;;;14.20;;
65691;SDS011;52411;52.716;6.696;2023-07-28T02:38:56;26.13;;;12.93;;
65691;SDS011;52411;52.716;6.696;2023-07-28T02:41:21;30.88;;;14.23;;
65691;SDS011;52411;52.716;6.696;2023-07-28T02:43:47;32.15;;;13.90;;
65691;SDS011;52411;52.716;6.696;2023-07-28T02:46:13;24.88;;;13.90;;
65691;SDS011;52411;52.716;6.696;2023-07-28T02:48:38;28.48;;;13.88;;
65691;SDS011;52411;52.716;6.696;2023-07-28T02:51:04;30.52;;;13.65;;
65691;SDS011;52411;52.716;6.696;2023-07-28T02:53:29;28.48;;;13.80;;
65691;SDS011;52411;52.716;6.696;2023-07-28T02:55:56;30.30;;;13.35;;
65691;SDS011;52411;52.716;6.696;2023-07-28T02:58:21;27.10;;;13.05;;
65691;SDS011;52411;52.716;6.696;2023-07-28T03:00:48;28.80;;;13.85;;
65691;SDS011;52411;52.716;6.696;2023-07-28T03:03:16;25.42;;;12.77;;
65691;SDS011;52411;52.716;6.696;2023-07-28T03:05:42;30.10;;;13.57;;
65691;SDS011;52411;52.716;6.696;2023-07-28T03:08:07;26.85;;;13.80;;
65691;SDS011;52411;52.716;6.696;2023-07-28T03:10:33;23.92;;;13.15;;
65691;SDS011;52411;52.716;6.696;2023-07-28T03:12:58;28.02;;;12.95;;
65691;SDS011;52411;52.716;6.696;2023-07-28T03:15:24;28.95;;;12.85;;
65691;SDS011;52411;52.716;6.696;2023-07-28T03:17:50;31.27;;;14.38;;
65691;SDS011;52411;52.716;6.696;2023-07-28T03:20:16;29.17;;;13.32;;
65691;SDS011;52411;52.716;6.696;2023-07-28T03:22:42;25.60;;;13.15;;
65691;SDS011;52411;52.716;6.696;2023-07-28T03:25:08;25.80;;;13.45;;
65691;SDS011;52411;52.716;6.696;2023-07-28T03:27:34;25.58;;;13.30;;
65691;SDS011;52411;52.716;6.696;2023-07-28T03:30:00;28.13;;;13.32;;
65691;SDS011;52411;52.716;6.696;2023-07-28T03:32:26;26.15;;;12.85;;
65691;SDS011;52411;52.716;6.696;2023-07-28T03:34:51;30.88;;;12.82;;
65691;SDS011;52411;52.716;6.696;2023-07-28T03:37:17;26.75;;;13.18;;
65691;SDS011;52411;52.716;6.696;2023-07-28T03:39:44;27.45;;;13.70;;
65691;SDS011;52411;52.716;6.696;2023-07-28T03:42:09;29.45;;;13.65;;
65691;SDS011;52411;52.716;6.696;2023-07-28T03:44:35;27.17;;;13.32;;
65691;SDS011;52411;52.716;6.696;2023-07-28T03:47:03;28.40;;;13.65;;
65691;SDS011;52411;52.716;6.696;2023-07-28T03:49:28;34.85;;;14.32;;
65691;SDS011;52411;52.716;6.696;2023-07-28T03:51:54;30.55;;;14.88;;
65691;SDS011;52411;52.716;6.696;2023-07-28T03:54:20;29.73;;;13.57;;
65691;SDS011;52411;52.716;6.696;2023-07-28T03:56:45;29.25;;;14.55;;
65691;SDS011;52411;52.716;6.696;2023-07-28T03:59:11;31.55;;;14.20;;
65691;SDS011;52411;52.716;6.696;2023-07-28T04:01:37;29.25;;;13.55;;
65691;SDS011;52411;52.716;6.696;2023-07-28T04:04:02;28.90;;;14.00;;
65691;SDS011;52411;52.716;6.696;2023-07-28T04:06:42;30.83;;;13.57;;
65691;SDS011;52411;52.716;6.696;2023-07-28T04:09:09;29.75;;;14.32;;
65691;SDS011;52411;52.716;6.696;2023-07-28T04:11:36;28.08;;;14.13;;
65691;SDS011;52411;52.716;6.696;2023-07-28T04:14:02;27.17;;;13.93;;
65691;SDS011;52411;52.716;6.696;2023-07-28T04:16:29;29.35;;;13.80;;
65691;SDS011;52411;52.716;6.696;2023-07-28T04:18:54;27.17;;;14.13;;
65691;SDS011;52411;52.716;6.696;2023-07-28T04:21:20;34.33;;;14.32;;
65691;SDS011;52411;52.716;6.696;2023-07-28T04:23:46;27.73;;;13.65;;
65691;SDS011;52411;52.716;6.696;2023-07-28T04:26:11;29.30;;;14.57;;
65691;SDS011;52411;52.716;6.696;2023-07-28T04:28:37;28.83;;;14.02;;
65691;SDS011;52411;52.716;6.696;2023-07-28T04:31:03;28.42;;;13.23;;
65691;SDS011;52411;52.716;6.696;2023-07-28T04:33:28;33.13;;;13.80;;
65691;SDS011;52411;52.716;6.696;2023-07-28T04:35:54;29.40;;;13.80;;
65691;SDS011;52411;52.716;6.696;2023-07-28T04:38:19;25.70;;;13.90;;
65691;SDS011;52411;52.716;6.696;2023-07-28T04:40:45;28.45;;;13.90;;
65691;SDS011;52411;52.716;6.696;2023-07-28T04:43:11;33.83;;;13.98;;
65691;SDS011;52411;52.716;6.696;2023-07-28T04:45:36;29.13;;;14.15;;
65691;SDS011;52411;52.716;6.696;2023-07-28T04:48:02;28.15;;;14.13;;
65691;SDS011;52411;52.716;6.696;2023-07-28T04:50:28;26.08;;;13.60;;
65691;SDS011;52411;52.716;6.696;2023-07-28T04:52:54;28.58;;;14.05;;
65691;SDS011;52411;52.716;6.696;2023-07-28T04:55:19;29.33;;;14.35;;
65691;SDS011;52411;52.716;6.696;2023-07-28T04:57:45;28.70;;;15.10;;
65691;SDS011;52411;52.716;6.696;2023-07-28T05:00:11;30.73;;;15.85;;
65691;SDS011;52411;52.716;6.696;2023-07-28T05:02:38;30.77;;;14.48;;
65691;SDS011;52411;52.716;6.696;2023-07-28T05:05:03;32.85;;;14.60;;
65691;SDS011;52411;52.716;6.696;2023-07-28T05:07:29;28.20;;;14.48;;
65691;SDS011;52411;52.716;6.696;2023-07-28T05:09:55;31.55;;;15.15;;
65691;SDS011;52411;52.716;6.696;2023-07-28T05:12:20;29.65;;;15.05;;
65691;SDS011;52411;52.716;6.696;2023-07-28T05:14:46;37.67;;;16.38;;
65691;SDS011;52411;52.716;6.696;2023-07-28T05:17:12;32.53;;;14.65;;
65691;SDS011;52411;52.716;6.696;2023-07-28T05:19:37;28.20;;;15.23;;
65691;SDS011;52411;52.716;6.696;2023-07-28T05:22:03;28.23;;;14.77;;
65691;SDS011;52411;52.716;6.696;2023-07-28T05:24:31;31.88;;;15.20;;
65691;SDS011;52411;52.716;6.696;2023-07-28T05:26:57;30.70;;;14.90;;
65691;SDS011;52411;52.716;6.696;2023-07-28T05:29:23;29.83;;;14.38;;
65691;SDS011;52411;52.716;6.696;2023-07-28T05:31:49;36.03;;;15.38;;
65691;SDS011;52411;52.716;6.696;2023-07-28T05:34:14;28.25;;;14.60;;
65691;SDS011;52411;52.716;6.696;2023-07-28T05:36:40;30.02;;;15.25;;
65691;SDS011;52411;52.716;6.696;2023-07-28T05:39:06;32.47;;;15.48;;
65691;SDS011;52411;52.716;6.696;2023-07-28T05:41:31;35.40;;;15.32;;
65691;SDS011;52411;52.716;6.696;2023-07-28T05:43:57;27.83;;;14.80;;
65691;SDS011;52411;52.716;6.696;2023-07-28T05:46:23;30.33;;;15.35;;
65691;SDS011;52411;52.716;6.696;2023-07-28T05:48:48;29.17;;;14.88;;
65691;SDS011;52411;52.716;6.696;2023-07-28T05:51:14;33.42;;;14.95;;
65691;SDS011;52411;52.716;6.696;2023-07-28T05:53:40;34.67;;;15.75;;
65691;SDS011;52411;52.716;6.696;2023-07-28T05:56:05;31.52;;;14.60;;
65691;SDS011;52411;52.716;6.696;2023-07-28T05:58:31;30.33;;;15.02;;
65691;SDS011;52411;52.716;6.696;2023-07-28T06:00:57;32.75;;;14.25;;
65691;SDS011;52411;52.716;6.696;2023-07-28T06:03:22;31.45;;;13.90;;
65691;SDS011;52411;52.716;6.696;2023-07-28T06:05:48;27.58;;;14.82;;
65691;SDS011;52411;52.716;6.696;2023-07-28T06:08:14;32.40;;;14.98;;
65691;SDS011;52411;52.716;6.696;2023-07-28T06:10:39;30.35;;;14.23;;
65691;SDS011;52411;52.716;6.696;2023-07-28T06:13:05;24.73;;;14.25;;
65691;SDS011;52411;52.716;6.696;2023-07-28T06:15:31;26.48;;;14.20;;
65691;SDS011;52411;52.716;6.696;2023-07-28T06:17:59;28.17;;;14.13;;
65691;SDS011;52411;52.716;6.696;2023-07-28T06:20:25;30.48;;;14.43;;
65691;SDS011;52411;52.716;6.696;2023-07-28T06:22:51;29.25;;;13.95;;
65691;SDS011;52411;52.716;6.696;2023-07-28T06:25:17;32.60;;;13.38;;
65691;SDS011;52411;52.716;6.696;2023-07-28T06:27:42;28.50;;;13.65;;
65691;SDS011;52411;52.716;6.696;2023-07-28T06:30:08;27.55;;;14.32;;
65691;SDS011;52411;52.716;6.696;2023-07-28T06:32:34;29.60;;;15.23;;
65691;SDS011;52411;52.716;6.696;2023-07-28T06:34:59;28.05;;;14.27;;
65691;SDS011;52411;52.716;6.696;2023-07-28T06:37:25;29.50;;;14.82;;
65691;SDS011;52411;52.716;6.696;2023-07-28T06:39:51;27.10;;;15.60;;
65691;SDS011;52411;52.716;6.696;2023-07-28T06:42:16;28.52;;;14.13;;
65691;SDS011;52411;52.716;6.696;2023-07-28T06:44:48;23.98;;;13.88;;
65691;SDS011;52411;52.716;6.696;2023-07-28T06:47:15;21.92;;;12.68;;
65691;SDS011;52411;52.716;6.696;2023-07-28T06:49:40;24.90;;;13.88;;
65691;SDS011;52411;52.716;6.696;2023-07-28T06:52:06;23.63;;;13.40;;
65691;SDS011;52411;52.716;6.696;2023-07-28T06:54:32;23.98;;;13.35;;
65691;SDS011;52411;52.716;6.696;2023-07-28T06:56:57;28.95;;;13.80;;
65691;SDS011;52411;52.716;6.696;2023-07-28T06:59:23;25.00;;;12.77;;
65691;SDS011;52411;52.716;6.696;2023-07-28T07:01:48;26.55;;;13.27;;
65691;SDS011;52411;52.716;6.696;2023-07-28T07:04:14;21.00;;;12.38;;
65691;SDS011;52411;52.716;6.696;2023-07-28T07:06:40;20.60;;;12.48;;
65691;SDS011;52411;52.716;6.696;2023-07-28T07:09:06;23.55;;;12.23;;
65691;SDS011;52411;52.716;6.696;2023-07-28T07:11:31;22.20;;;11.60;;
65691;SDS011;52411;52.716;6.696;2023-07-28T07:13:57;19.55;;;12.25;;
65691;SDS011;52411;52.716;6.696;2023-07-28T07:16:23;20.35;;;12.02;;
65691;SDS011;52411;52.716;6.696;2023-07-28T07:18:48;22.13;;;12.00;;
65691;SDS011;52411;52.716;6.696;2023-07-28T07:21:16;18.35;;;11.30;;
65691;SDS011;52411;52.716;6.696;2023-07-28T07:23:42;19.40;;;11.93;;
65691;SDS011;52411;52.716;6.696;2023-07-28T07:26:07;20.10;;;12.00;;
65691;SDS011;52411;52.716;6.696;2023-07-28T07:28:33;19.88;;;11.75;;
65691;SDS011;52411;52.716;6.696;2023-07-28T07:31:00;20.83;;;11.85;;
65691;SDS011;52411;52.716;6.696;2023-07-28T07:33:26;22.35;;;11.60;;
65691;SDS011;52411;52.716;6.696;2023-07-28T07:35:52;17.38;;;11.07;;
65691;SDS011;52411;52.716;6.696;2023-07-28T07:38:18;17.10;;;11.23;;
65691;SDS011;52411;52.716;6.696;2023-07-28T07:40:47;16.27;;;10.70;;
65691;SDS011;52411;52.716;6.696;2023-07-28T07:43:13;17.88;;;10.40;;
65691;SDS011;52411;52.716;6.696;2023-07-28T07:45:44;15.30;;;11.05;;
65691;SDS011;52411;52.716;6.696;2023-07-28T07:48:12;16.10;;;10.23;;
65691;SDS011;52411;52.716;6.696;2023-07-28T07:50:38;14.75;;;10.25;;
65691;SDS011;52411;52.716;6.696;2023-07-28T07:53:04;17.55;;;9.77;;
65691;SDS011;52411;52.716;6.696;2023-07-28T07:55:29;18.65;;;9.90;;
65691;SDS011;52411;52.716;6.696;2023-07-28T07:57:56;16.00;;;9.90;;
65691;SDS011;52411;52.716;6.696;2023-07-28T08:00:22;14.98;;;9.73;;
65691;SDS011;52411;52.716;6.696;2023-07-28T08:02:49;16.75;;;9.02;;
65691;SDS011;52411;52.716;6.696;2023-07-28T08:05:15;16.67;;;9.43;;
65691;SDS011;52411;52.716;6.696;2023-07-28T08:07:41;14.98;;;9.15;;
65691;SDS011;52411;52.716;6.696;2023-07-28T08:10:07;16.48;;;9.02;;
65691;SDS011;52411;52.716;6.696;2023-07-28T08:12:33;17.77;;;9.35;;
65691;SDS011;52411;52.716;6.696;2023-07-28T08:14:59;13.85;;;8.95;;
65691;SDS011;52411;52.716;6.696;2023-07-28T08:17:25;14.48;;;9.05;;
65691;SDS011;52411;52.716;6.696;2023-07-28T08:19:50;16.50;;;8.23;;
65691;SDS011;52411;52.716;6.696;2023-07-28T08:22:16;11.40;;;8.57;;
65691;SDS011;52411;52.716;6.696;2023-07-28T08:24:42;15.95;;;8.90;;
65691;SDS011;52411;52.716;6.696;2023-07-28T08:27:07;11.50;;;8.20;;
65691;SDS011;52411;52.716;6.696;2023-07-28T08:29:33;14.00;;;7.75;;
65691;SDS011;52411;52.716;6.696;2023-07-28T08:31:59;9.70;;;7.25;;
65691;SDS011;52411;52.716;6.696;2023-07-28T08:34:24;11.82;;;7.45;;
65691;SDS011;52411;52.716;6.696;2023-07-28T08:36:51;16.42;;;7.45;;
65691;SDS011;52411;52.716;6.696;2023-07-28T08:39:17;14.10;;;8.00;;
65691;SDS011;52411;52.716;6.696;2023-07-28T08:41:43;14.55;;;8.57;;
65691;SDS011;52411;52.716;6.696;2023-07-28T08:44:09;14.98;;;7.78;;
65691;SDS011;52411;52.716;6.696;2023-07-28T08:46:34;12.25;;;8.65;;
65691;SDS011;52411;52.716;6.696;2023-07-28T08:49:01;17.23;;;8.10;;
65691;SDS011;52411;52.716;6.696;2023-07-28T08:51:27;16.35;;;9.20;;
65691;SDS011;52411;52.716;6.696;2023-07-28T08:53:52;14.80;;;8.43;;
65691;SDS011;52411;52.716;6.696;2023-07-28T08:56:18;16.08;;;9.60;;
65691;SDS011;52411;52.716;6.696;2023-07-28T08:58:45;16.77;;;8.88;;
65691;SDS011;52411;52.716;6.696;2023-07-28T09:01:11;14.70;;;9.55;;
65691;SDS011;52411;52.716;6.696;2023-07-28T09:03:40;17.83;;;9.45;;
65691;SDS011;52411;52.716;6.696;2023-07-28T09:06:07;14.48;;;9.40;;
65691;SDS011;52411;52.716;6.696;2023-07-28T09:08:35;16.20;;;9.45;;
65691;SDS011;52411;52.716;6.696;2023-07-28T09:11:02;18.17;;;9.98;;
65691;SDS011;52411;52.716;6.696;2023-07-28T09:13:35;16.08;;;9.75;;
65691;SDS011;52411;52.716;6.696;2023-07-28T09:16:02;16.00;;;9.93;;
65691;SDS011;52411;52.716;6.696;2023-07-28T09:18:29;14.10;;;9.32;;
65691;SDS011;52411;52.716;6.696;2023-07-28T09:20:55;14.43;;;9.70;;
65691;SDS011;52411;52.716;6.696;2023-07-28T09:23:27;15.48;;;9.40;;
65691;SDS011;52411;52.716;6.696;2023-07-28T09:25:58;18.73;;;9.60;;
65691;SDS011;52411;52.716;6.696;2023-07-28T09:28:36;16.15;;;9.85;;
65691;SDS011;52411;52.716;6.696;2023-07-28T09:31:05;15.75;;;9.30;;
65691;SDS011;52411;52.716;6.696;2023-07-28T09:33:31;18.50;;;10.07;;
65691;SDS011;52411;52.716;6.696;2023-07-28T09:36:06;19.42;;;9.32;;
65691;SDS011;52411;52.716;6.696;2023-07-28T09:38:33;18.27;;;10.02;;
65691;SDS011;52411;52.716;6.696;2023-07-28T09:41:06;15.57;;;9.05;;
65691;SDS011;52411;52.716;6.696;2023-07-28T09:43:35;15.70;;;8.50;;
65691;SDS011;52411;52.716;6.696;2023-07-28T09:46:06;15.05;;;8.68;;
65691;SDS011;52411;52.716;6.696;2023-07-28T09:48:32;15.38;;;8.63;;
65691;SDS011;52411;52.716;6.696;2023-07-28T09:51:02;15.65;;;9.15;;
65691;SDS011;52411;52.716;6.696;2023-07-28T09:53:55;14.27;;;8.88;;
65691;SDS011;52411;52.716;6.696;2023-07-28T09:56:28;18.13;;;9.70;;
65691;SDS011;52411;52.716;6.696;2023-07-28T09:58:58;14.52;;;8.57;;
65691;SDS011;52411;52.716;6.696;2023-07-28T10:01:26;15.02;;;9.60;;
65691;SDS011;52411;52.716;6.696;2023-07-28T10:03:53;11.82;;;8.95;;
65691;SDS011;52411;52.716;6.696;2023-07-28T10:06:19;17.60;;;9.60;;
65691;SDS011;52411;52.716;6.696;2023-07-28T10:08:47;13.43;;;8.82;;
65691;SDS011;52411;52.716;6.696;2023-07-28T10:11:14;16.15;;;8.98;;
65691;SDS011;52411;52.716;6.696;2023-07-28T10:13:44;10.95;;;8.43;;
65691;SDS011;52411;52.716;6.696;2023-07-28T10:16:11;13.43;;;8.32;;
65691;SDS011;52411;52.716;6.696;2023-07-28T10:18:39;10.88;;;7.43;;
65691;SDS011;52411;52.716;6.696;2023-07-28T10:21:15;14.63;;;8.70;;
65691;SDS011;52411;52.716;6.696;2023-07-28T10:23:42;13.05;;;8.85;;
65691;SDS011;52411;52.716;6.696;2023-07-28T10:26:09;14.20;;;9.65;;
65691;SDS011;52411;52.716;6.696;2023-07-28T10:28:35;11.73;;;9.00;;
65691;SDS011;52411;52.716;6.696;2023-07-28T10:31:09;15.32;;;9.10;;
65691;SDS011;52411;52.716;6.696;2023-07-28T10:33:45;14.27;;;8.90;;
65691;SDS011;52411;52.716;6.696;2023-07-28T10:36:12;10.00;;;7.38;;
65691;SDS011;52411;52.716;6.696;2023-07-28T10:38:59;8.02;;;5.97;;
65691;SDS011;52411;52.716;6.696;2023-07-28T10:41:25;7.70;;;5.65;;
65691;SDS011;52411;52.716;6.696;2023-07-28T10:43:51;7.65;;;5.47;;
65691;SDS011;52411;52.716;6.696;2023-07-28T10:46:17;6.35;;;5.22;;
65691;SDS011;52411;52.716;6.696;2023-07-28T10:48:46;9.75;;;7.00;;
65691;SDS011;52411;52.716;6.696;2023-07-28T10:51:20;9.20;;;7.03;;
65691;SDS011;52411;52.716;6.696;2023-07-28T10:53:49;8.48;;;7.07;;
65691;SDS011;52411;52.716;6.696;2023-07-28T10:56:15;7.22;;;6.00;;
65691;SDS011;52411;52.716;6.696;2023-07-28T10:58:41;7.75;;;6.28;;
65691;SDS011;52411;52.716;6.696;2023-07-28T11:01:07;9.27;;;6.28;;
65691;SDS011;52411;52.716;6.696;2023-07-28T11:03:32;8.07;;;5.70;;
65691;SDS011;52411;52.716;6.696;2023-07-28T11:05:58;9.05;;;7.38;;
65691;SDS011;52411;52.716;6.696;2023-07-28T11:08:24;8.88;;;7.22;;
65691;SDS011;52411;52.716;6.696;2023-07-28T11:10:50;9.32;;;7.50;;
65691;SDS011;52411;52.716;6.696;2023-07-28T11:13:16;10.77;;;8.00;;
65691;SDS011;52411;52.716;6.696;2023-07-28T11:15:41;12.68;;;8.45;;
65691;SDS011;52411;52.716;6.696;2023-07-28T11:18:08;12.65;;;8.60;;
65691;SDS011;52411;52.716;6.696;2023-07-28T11:20:34;10.30;;;7.22;;
65691;SDS011;52411;52.716;6.696;2023-07-28T11:23:04;8.73;;;6.65;;
65691;SDS011;52411;52.716;6.696;2023-07-28T11:25:30;8.07;;;5.25;;
65691;SDS011;52411;52.716;6.696;2023-07-28T11:27:57;5.93;;;4.85;;
65691;SDS011;52411;52.716;6.696;2023-07-28T11:30:26;7.57;;;5.22;;
65691;SDS011;52411;52.716;6.696;2023-07-28T11:32:52;7.55;;;5.57;;
65691;SDS011;52411;52.716;6.696;2023-07-28T11:35:19;6.45;;;5.07;;
65691;SDS011;52411;52.716;6.696;2023-07-28T11:37:46;6.13;;;5.00;;
65691;SDS011;52411;52.716;6.696;2023-07-28T11:40:13;6.20;;;5.10;;
65691;SDS011;52411;52.716;6.696;2023-07-28T11:42:43;8.70;;;6.05;;
65691;SDS011;52411;52.716;6.696;2023-07-28T11:45:11;10.35;;;6.68;;
65691;SDS011;52411;52.716;6.696;2023-07-28T11:47:38;10.27;;;6.95;;
65691;SDS011;52411;52.716;6.696;2023-07-28T11:50:04;9.18;;;7.20;;
65691;SDS011;52411;52.716;6.696;2023-07-28T11:52:30;9.45;;;7.50;;
65691;SDS011;52411;52.716;6.696;2023-07-28T11:54:57;12.25;;;7.50;;
65691;SDS011;52411;52.716;6.696;2023-07-28T11:57:28;10.13;;;6.80;;
65691;SDS011;52411;52.716;6.696;2023-07-28T11:59:58;9.15;;;6.43;;
65691;SDS011;52411;52.716;6.696;2023-07-28T12:02:27;8.80;;;6.63;;
65691;SDS011;52411;52.716;6.696;2023-07-28T12:04:55;11.80;;;7.63;;
65691;SDS011;52411;52.716;6.696;2023-07-28T12:07:29;9.52;;;7.38;;
65691;SDS011;52411;52.716;6.696;2023-07-28T12:09:56;11.98;;;7.55;;
65691;SDS011;52411;52.716;6.696;2023-07-28T12:12:26;11.68;;;7.50;;
65691;SDS011;52411;52.716;6.696;2023-07-28T12:14:54;8.38;;;7.18;;
65691;SDS011;52411;52.716;6.696;2023-07-28T12:17:21;9.13;;;7.10;;
65691;SDS011;52411;52.716;6.696;2023-07-28T12:22:44;12.15;;;7.18;;
65691;SDS011;52411;52.716;6.696;2023-07-28T12:25:10;8.73;;;6.78;;
65691;SDS011;52411;52.716;6.696;2023-07-28T12:27:36;7.45;;;6.20;;
65691;SDS011;52411;52.716;6.696;2023-07-28T12:30:03;8.15;;;6.60;;
65691;SDS011;52411;52.716;6.696;2023-07-28T12:32:29;8.68;;;6.20;;
65691;SDS011;52411;52.716;6.696;2023-07-28T12:34:55;8.07;;;5.78;;
65691;SDS011;52411;52.716;6.696;2023-07-28T12:37:20;8.35;;;5.65;;
65691;SDS011;52411;52.716;6.696;2023-07-28T12:39:48;9.00;;;6.30;;
65691;SDS011;52411;52.716;6.696;2023-07-28T12:42:14;6.90;;;5.75;;
65691;SDS011;52411;52.716;6.696;2023-07-28T12:44:40;10.20;;;5.90;;
65691;SDS011;52411;52.716;6.696;2023-07-28T12:47:06;9.45;;;5.00;;
65691;SDS011;52411;52.716;6.696;2023-07-28T12:49:32;6.10;;;4.88;;
65691;SDS011;52411;52.716;6.696;2023-07-28T12:52:00;7.20;;;4.78;;
65691;SDS011;52411;52.716;6.696;2023-07-28T12:54:27;6.78;;;5.22;;
65691;SDS011;52411;52.716;6.696;2023-07-28T12:56:53;9.85;;;5.15;;
65691;SDS011;52411;52.716;6.696;2023-07-28T12:59:19;8.43;;;5.35;;
65691;SDS011;52411;52.716;6.696;2023-07-28T13:01:44;6.93;;;5.22;;
65691;SDS011;52411;52.716;6.696;2023-07-28T13:04:10;8.82;;;5.50;;
65691;SDS011;52411;52.716;6.696;2023-07-28T13:06:36;10.63;;;6.05;;
65691;SDS011;52411;52.716;6.696;2023-07-28T13:09:02;9.30;;;5.95;;
65691;SDS011;52411;52.716;6.696;2023-07-28T13:11:29;9.75;;;6.28;;
65691;SDS011;52411;52.716;6.696;2023-07-28T13:13:54;8.20;;;5.97;;
65691;SDS011;52411;52.716;6.696;2023-07-28T13:16:20;7.20;;;5.00;;
65691;SDS011;52411;52.716;6.696;2023-07-28T13:18:46;9.63;;;4.32;;
65691;SDS011;52411;52.716;6.696;2023-07-28T13:21:12;6.95;;;4.40;;
65691;SDS011;52411;52.716;6.696;2023-07-28T13:23:38;7.55;;;4.35;;
65691;SDS011;52411;52.716;6.696;2023-07-28T13:26:04;6.78;;;4.28;;
65691;SDS011;52411;52.716;6.696;2023-07-28T13:28:30;6.72;;;4.60;;
65691;SDS011;52411;52.716;6.696;2023-07-28T13:30:56;5.45;;;4.60;;
65691;SDS011;52411;52.716;6.696;2023-07-28T13:33:22;7.50;;;4.40;;
65691;SDS011;52411;52.716;6.696;2023-07-28T13:35:47;5.85;;;4.00;;
65691;SDS011;52411;52.716;6.696;2023-07-28T13:38:13;5.50;;;3.40;;
65691;SDS011;52411;52.716;6.696;2023-07-28T13:40:39;4.90;;;3.60;;
65691;SDS011;52411;52.716;6.696;2023-07-28T13:43:05;6.18;;;3.95;;
65691;SDS011;52411;52.716;6.696;2023-07-28T13:45:30;6.20;;;3.65;;
65691;SDS011;52411;52.716;6.696;2023-07-28T13:47:56;5.20;;;3.55;;
65691;SDS011;52411;52.716;6.696;2023-07-28T13:50:22;5.32;;;3.50;;
65691;SDS011;52411;52.716;6.696;2023-07-28T13:52:48;6.32;;;4.10;;
65691;SDS011;52411;52.716;6.696;2023-07-28T13:55:14;5.57;;;3.83;;
65691;SDS011;52411;52.716;6.696;2023-07-28T13:57:39;5.47;;;4.05;;
65691;SDS011;52411;52.716;6.696;2023-07-28T14:00:05;5.13;;;3.95;;
65691;SDS011;52411;52.716;6.696;2023-07-28T14:02:37;6.22;;;4.40;;
65691;SDS011;52411;52.716;6.696;2023-07-28T14:05:04;5.57;;;4.28;;
65691;SDS011;52411;52.716;6.696;2023-07-28T14:07:30;7.72;;;4.90;;
65691;SDS011;52411;52.716;6.696;2023-07-28T14:09:56;6.22;;;4.55;;
65691;SDS011;52411;52.716;6.696;2023-07-28T14:12:22;8.90;;;4.57;;
65691;SDS011;52411;52.716;6.696;2023-07-28T14:14:48;5.80;;;4.65;;
65691;SDS011;52411;52.716;6.696;2023-07-28T14:17:15;7.93;;;5.18;;
65691;SDS011;52411;52.716;6.696;2023-07-28T14:19:41;6.78;;;4.50;;
65691;SDS011;52411;52.716;6.696;2023-07-28T14:22:06;7.75;;;4.90;;
65691;SDS011;52411;52.716;6.696;2023-07-28T14:24:32;7.63;;;4.93;;
65691;SDS011;52411;52.716;6.696;2023-07-28T14:26:58;6.28;;;4.75;;
65691;SDS011;52411;52.716;6.696;2023-07-28T14:29:24;8.00;;;4.53;;
65691;SDS011;52411;52.716;6.696;2023-07-28T14:31:49;6.65;;;4.35;;
65691;SDS011;52411;52.716;6.696;2023-07-28T14:34:15;8.43;;;4.18;;